Portada
METAR-TAF:

METAR-TAF

Aeroports :

Chiang Mai, Tailàndia

latitud: 18-47N, longitud: 098-59E, altitud: 312 m

Observació

L'informe es va fer fa 23 minuts, a les 01:00 UTC
Vent 2 kt amb direcció variable
Temperatura 27°C
Humitat 79%
Pressió 1008 hPa
Visibilitat 10 km o més
Núvols disperses a una alçada de 3500 ft

METAR: VTCC 010100Z VRB02KT 9999 SCT035 27/23 Q1008 NOSIG

Hora: 08:23 (01:23 UTC)

Pronòstic

L'informe es va fer fa 2 hores i 23 minuts, a les 23:00 UTC
Pronòstic vàlid del 01 a les 00 UTC al 02 a les 06 UTC
Vent 5 kt del Sud-Oest
Visibilitat 10 km o més
Cel ennuvolat a una alçada de 3500 ft
Temporalment
l' 01 a les 06 UTC al 01 a les 12 UTC
Vent 15 kt del Sud amb ràfegues de 25 kt
Visibilitat: 4000 m
Escasses núvols a una alçada de 2500 ft, Cumulonimbus.
Cel ennuvolat a una alçada de 3500 ft
tempesta, pluja

TAF: VTCC 302300Z 0100/0206 22005KT 9999 BKN035 TEMPO 0106/0112 19015G25KT 4000 TSRA FEW025CB BKN035

Observacions i pronòstics meteorològics de més de 4000 aeroports (METAR i TAF).

Les estacions disponibles són els punts grocs i vermells al mapa.

Posi el ratolí al punt desitjat per veure el nom de l'estació.

Feu clic per veure les observacions i els pronòstics meteorològics.

Per canviar el mapa: feu clic els botons verds amb una creu de color negre per apropar; al botó verd amb un guió per allunyar la imatge; o en les fletxes verdes per a mapes adjacents.


METAR-TAF: